Overview Statistics Trail Chart Weather Telemetry Raw packets
 

This is the latest recevied weather packets stored in our database for station/object KG4GJX. If no packets are shown the sender has not sent any weather packets the latest 10 day(s).

<< 12 13 14 15 16 17 18 >>
Time Temp. Humidity Pressure Rain* Wind** Luminosity Snow
1788371150 34.44° C 53% 1019.9 hPa 0 mm - - -
1788370487 33.89° C 56% 1020.3 hPa 0 mm - - -
1788369825 33.89° C 57% 1020.3 hPa 0 mm - - -
1788369162 33.89° C 57% 1020.6 hPa 0 mm - - -
1788368500 34.44° C 58% 1020.6 hPa 0 mm - - -
1788367838 34.44° C 54% 1020.6 hPa 0 mm - - -
1788367175 34.44° C 56% 1020.9 hPa 0 mm - - -
1788366513 33.89° C 58% 1020.9 hPa 0 mm - - -
1788365850 33.33° C 57% 1020.9 hPa 0 mm - - -
1788365176 33.33° C 61% 1020.9 hPa 0 mm - - -
1788364514 32.22° C 63% 1021.3 hPa 0 mm - - -
1788363852 32.22° C 64% 1021.3 hPa 0 mm - - -
1788363189 31.11° C 68% 1021.3 hPa 0 mm - - -
1788362527 31.11° C 67% 1021.3 hPa 0 mm - - -
1788361864 30.56° C 67% 1021.3 hPa 0 mm - - -
1788361202 30.56° C 73% 1021.3 hPa 0 mm - - -
1788357770 26.67° C 90% 1020.9 hPa 0 mm - - -
1788357107 26.67° C 99% 1020.9 hPa 0 mm - - -
1788356445 25.56° C 100% 1020.9 hPa 0 mm - - -
1788355783 25° C 100% 1021.3 hPa 0 mm - - -
1788355121 24.44° C 100% 1021.3 hPa 0 mm - - -
1788353798 23.89° C 100% 1020.9 hPa 0 mm - - -
1788353136 22.78° C 100% 1020.6 hPa 0 mm - - -
1788352473 22.22° C 100% 1020.9 hPa 0 mm - - -
1788351811 21.67° C 100% 1020.6 hPa 0 mm - - -

* Rain latest hour (hover to see other rain measurements)
** Current wind speed in m/s (hover to see current wind gust speed)